sensor_id;sensor_type;location;lat;lon;timestamp;pressure;altitude;pressure_sealevel;temperature;humidity
12182;BME280;6154;51.550;12.138;2023-02-20T00:01:45;101245.50;;;10.46;56.74
12182;BME280;6154;51.550;12.138;2023-02-20T00:04:13;101238.28;;;10.49;57.02
12182;BME280;6154;51.550;12.138;2023-02-20T00:06:41;101249.66;;;10.51;57.17
12182;BME280;6154;51.550;12.138;2023-02-20T00:09:11;101247.78;;;10.55;56.95
12182;BME280;6154;51.550;12.138;2023-02-20T00:11:40;101245.91;;;10.57;56.92
12182;BME280;6154;51.550;12.138;2023-02-20T00:14:08;101245.06;;;10.56;57.00
12182;BME280;6154;51.550;12.138;2023-02-20T00:16:36;101245.00;;;10.58;57.00
12182;BME280;6154;51.550;12.138;2023-02-20T00:19:05;101249.34;;;10.59;57.06
12182;BME280;6154;51.550;12.138;2023-02-20T00:21:33;101241.62;;;10.54;57.60
12182;BME280;6154;51.550;12.138;2023-02-20T00:24:01;101237.00;;;10.59;57.11
12182;BME280;6154;51.550;12.138;2023-02-20T00:26:31;101236.06;;;10.60;57.32
12182;BME280;6154;51.550;12.138;2023-02-20T00:28:59;101232.47;;;10.61;56.87
12182;BME280;6154;51.550;12.138;2023-02-20T00:31:27;101225.28;;;10.65;57.06
12182;BME280;6154;51.550;12.138;2023-02-20T00:33:55;101215.75;;;10.61;57.44
12182;BME280;6154;51.550;12.138;2023-02-20T00:36:23;101219.00;;;10.68;56.88
12182;BME280;6154;51.550;12.138;2023-02-20T00:38:51;101212.00;;;10.67;57.08
12182;BME280;6154;51.550;12.138;2023-02-20T00:41:22;101204.69;;;10.72;57.39
12182;BME280;6154;51.550;12.138;2023-02-20T00:43:51;101198.59;;;10.70;57.12
12182;BME280;6154;51.550;12.138;2023-02-20T00:46:20;101200.22;;;10.74;57.16
12182;BME280;6154;51.550;12.138;2023-02-20T00:48:48;101192.19;;;10.75;56.93
12182;BME280;6154;51.550;12.138;2023-02-20T00:51:31;101197.22;;;10.81;57.02
12182;BME280;6154;51.550;12.138;2023-02-20T00:54:01;101187.44;;;10.83;56.89
12182;BME280;6154;51.550;12.138;2023-02-20T00:56:29;101192.59;;;10.86;56.80
12182;BME280;6154;51.550;12.138;2023-02-20T00:58:59;101182.00;;;10.86;56.67
12182;BME280;6154;51.550;12.138;2023-02-20T01:01:27;101173.13;;;10.87;57.09
12182;BME280;6154;51.550;12.138;2023-02-20T01:03:56;101166.97;;;10.87;57.06
12182;BME280;6154;51.550;12.138;2023-02-20T01:06:24;101164.19;;;10.90;57.21
12182;BME280;6154;51.550;12.138;2023-02-20T01:08:52;101161.47;;;10.91;57.28
12182;BME280;6154;51.550;12.138;2023-02-20T01:11:20;101159.75;;;10.90;57.55
12182;BME280;6154;51.550;12.138;2023-02-20T01:13:48;101163.84;;;10.98;57.09
12182;BME280;6154;51.550;12.138;2023-02-20T01:16:18;101177.94;;;10.98;57.16
12182;BME280;6154;51.550;12.138;2023-02-20T01:18:48;101178.03;;;10.97;57.25
12182;BME280;6154;51.550;12.138;2023-02-20T01:21:18;101169.37;;;10.93;56.92
12182;BME280;6154;51.550;12.138;2023-02-20T01:23:47;101172.72;;;10.97;57.09
12182;BME280;6154;51.550;12.138;2023-02-20T01:26:15;101170.06;;;10.97;57.22
12182;BME280;6154;51.550;12.138;2023-02-20T01:28:44;101179.66;;;10.99;57.16
12182;BME280;6154;51.550;12.138;2023-02-20T01:31:13;101178.66;;;11.02;57.32
12182;BME280;6154;51.550;12.138;2023-02-20T01:33:43;101183.97;;;11.02;57.46
12182;BME280;6154;51.550;12.138;2023-02-20T01:36:11;101181.19;;;11.05;57.42
12182;BME280;6154;51.550;12.138;2023-02-20T01:38:40;101181.03;;;11.08;57.53
12182;BME280;6154;51.550;12.138;2023-02-20T01:41:09;101183.50;;;11.12;57.47
12182;BME280;6154;51.550;12.138;2023-02-20T01:43:39;101178.06;;;11.15;57.44
12182;BME280;6154;51.550;12.138;2023-02-20T01:46:48;101169.09;;;11.18;57.41
12182;BME280;6154;51.550;12.138;2023-02-20T01:49:28;101165.25;;;11.25;58.55
12182;BME280;6154;51.550;12.138;2023-02-20T01:52:04;101151.22;;;11.23;58.14
12182;BME280;6154;51.550;12.138;2023-02-20T01:54:35;101147.56;;;11.26;58.23
12182;BME280;6154;51.550;12.138;2023-02-20T01:57:08;101149.19;;;11.28;58.09
12182;BME280;6154;51.550;12.138;2023-02-20T01:59:42;101134.25;;;11.27;58.54
12182;BME280;6154;51.550;12.138;2023-02-20T02:02:12;101126.13;;;11.30;58.11
12182;BME280;6154;51.550;12.138;2023-02-20T02:04:43;101115.41;;;11.33;58.13
12182;BME280;6154;51.550;12.138;2023-02-20T02:07:11;101118.97;;;11.32;58.45
12182;BME280;6154;51.550;12.138;2023-02-20T02:09:48;101118.94;;;11.34;59.17
12182;BME280;6154;51.550;12.138;2023-02-20T02:12:16;101124.50;;;11.28;60.45
12182;BME280;6154;51.550;12.138;2023-02-20T02:14:44;101115.41;;;11.33;60.54
12182;BME280;6154;51.550;12.138;2023-02-20T02:17:39;101116.91;;;11.39;60.57
12182;BME280;6154;51.550;12.138;2023-02-20T02:20:31;101110.06;;;11.52;60.91
12182;BME280;6154;51.550;12.138;2023-02-20T02:23:39;101094.97;;;11.54;60.57
12182;BME280;6154;51.550;12.138;2023-02-20T02:26:22;101098.81;;;11.66;60.03
12182;BME280;6154;51.550;12.138;2023-02-20T02:29:13;101091.72;;;11.66;59.62
12182;BME280;6154;51.550;12.138;2023-02-20T02:32:02;101089.81;;;11.51;60.58
12182;BME280;6154;51.550;12.138;2023-02-20T02:35:08;101079.53;;;11.62;60.37
12182;BME280;6154;51.550;12.138;2023-02-20T02:37:47;101084.56;;;11.68;60.07
12182;BME280;6154;51.550;12.138;2023-02-20T02:40:22;101085.50;;;11.67;59.49
12182;BME280;6154;51.550;12.138;2023-02-20T02:43:00;101080.97;;;11.69;59.35
12182;BME280;6154;51.550;12.138;2023-02-20T02:45:37;101067.34;;;11.77;59.05
12182;BME280;6154;51.550;12.138;2023-02-20T02:48:12;101065.72;;;11.74;59.26
12182;BME280;6154;51.550;12.138;2023-02-20T02:50:44;101070.75;;;11.79;59.10
12182;BME280;6154;51.550;12.138;2023-02-20T02:53:15;101079.53;;;11.81;59.44
12182;BME280;6154;51.550;12.138;2023-02-20T02:55:43;101074.22;;;11.81;59.24
12182;BME280;6154;51.550;12.138;2023-02-20T02:58:11;101074.09;;;11.84;58.83
12182;BME280;6154;51.550;12.138;2023-02-20T03:00:42;101075.09;;;11.82;59.61
12182;BME280;6154;51.550;12.138;2023-02-20T03:03:16;101065.13;;;11.87;59.38
12182;BME280;6154;51.550;12.138;2023-02-20T03:05:51;101065.13;;;11.87;59.50
12182;BME280;6154;51.550;12.138;2023-02-20T03:08:26;101063.16;;;11.90;59.41
12182;BME280;6154;51.550;12.138;2023-02-20T03:11:02;101052.03;;;11.84;60.12
12182;BME280;6154;51.550;12.138;2023-02-20T03:13:36;101049.97;;;11.89;59.30
12182;BME280;6154;51.550;12.138;2023-02-20T03:16:31;101049.78;;;11.93;58.99
12182;BME280;6154;51.550;12.138;2023-02-20T03:19:01;101035.66;;;11.93;59.44
12182;BME280;6154;51.550;12.138;2023-02-20T03:21:33;101028.38;;;11.96;58.75
12182;BME280;6154;51.550;12.138;2023-02-20T03:24:05;101024.03;;;11.95;59.00
12182;BME280;6154;51.550;12.138;2023-02-20T03:26:35;101028.31;;;11.98;59.29
12182;BME280;6154;51.550;12.138;2023-02-20T03:29:08;101032.16;;;11.73;60.36
12182;BME280;6154;51.550;12.138;2023-02-20T03:31:42;101033.37;;;11.85;60.16
12182;BME280;6154;51.550;12.138;2023-02-20T03:34:15;101033.03;;;11.91;60.10
12182;BME280;6154;51.550;12.138;2023-02-20T03:37:05;101036.94;;;12.01;59.58
12182;BME280;6154;51.550;12.138;2023-02-20T03:39:59;101047.91;;;12.13;59.23
12182;BME280;6154;51.550;12.138;2023-02-20T03:42:49;101064.41;;;12.00;59.55
12182;BME280;6154;51.550;12.138;2023-02-20T03:45:38;101066.00;;;12.04;59.52
12182;BME280;6154;51.550;12.138;2023-02-20T03:48:11;101063.81;;;12.13;58.78
12182;BME280;6154;51.550;12.138;2023-02-20T03:50:42;101054.09;;;12.29;58.41
12182;BME280;6154;51.550;12.138;2023-02-20T03:53:10;101050.97;;;12.21;58.80
12182;BME280;6154;51.550;12.138;2023-02-20T03:55:41;101058.09;;;12.20;58.50
12182;BME280;6154;51.550;12.138;2023-02-20T03:58:10;101055.34;;;12.22;58.16
12182;BME280;6154;51.550;12.138;2023-02-20T04:00:42;101058.47;;;12.30;58.17
12182;BME280;6154;51.550;12.138;2023-02-20T04:03:17;101051.06;;;12.19;58.42
12182;BME280;6154;51.550;12.138;2023-02-20T04:05:49;101054.06;;;12.13;58.59
12182;BME280;6154;51.550;12.138;2023-02-20T04:08:22;101050.59;;;12.11;58.39
12182;BME280;6154;51.550;12.138;2023-02-20T04:10:56;101050.22;;;12.19;58.41
12182;BME280;6154;51.550;12.138;2023-02-20T04:13:27;101044.91;;;12.01;58.33
12182;BME280;6154;51.550;12.138;2023-02-20T04:16:00;101049.12;;;12.05;58.91
12182;BME280;6154;51.550;12.138;2023-02-20T04:18:29;101043.09;;;12.19;58.22
12182;BME280;6154;51.550;12.138;2023-02-20T04:21:03;101042.19;;;12.03;58.75
12182;BME280;6154;51.550;12.138;2023-02-20T04:23:37;101028.25;;;12.32;58.12
12182;BME280;6154;51.550;12.138;2023-02-20T04:26:11;101026.59;;;12.14;58.35
12182;BME280;6154;51.550;12.138;2023-02-20T04:28:43;101022.53;;;12.24;58.14
12182;BME280;6154;51.550;12.138;2023-02-20T04:31:15;101021.66;;;12.24;57.88
12182;BME280;6154;51.550;12.138;2023-02-20T04:33:44;101023.94;;;12.47;57.50
12182;BME280;6154;51.550;12.138;2023-02-20T04:36:12;101018.47;;;12.17;57.92
12182;BME280;6154;51.550;12.138;2023-02-20T04:38:41;101016.66;;;12.35;57.69
12182;BME280;6154;51.550;12.138;2023-02-20T04:41:12;101020.37;;;12.31;57.69
12182;BME280;6154;51.550;12.138;2023-02-20T04:43:40;101016.97;;;12.12;57.78
12182;BME280;6154;51.550;12.138;2023-02-20T04:46:09;101006.03;;;12.35;57.55
12182;BME280;6154;51.550;12.138;2023-02-20T04:48:38;101005.75;;;12.06;57.89
12182;BME280;6154;51.550;12.138;2023-02-20T04:51:07;101006.06;;;12.18;57.38
12182;BME280;6154;51.550;12.138;2023-02-20T04:53:37;100991.06;;;12.17;57.81
12182;BME280;6154;51.550;12.138;2023-02-20T04:56:05;100997.81;;;12.40;57.14
12182;BME280;6154;51.550;12.138;2023-02-20T04:58:36;100984.72;;;12.52;56.78
12182;BME280;6154;51.550;12.138;2023-02-20T05:01:07;100988.50;;;12.48;56.64
12182;BME280;6154;51.550;12.138;2023-02-20T05:03:35;100990.69;;;12.40;56.90
12182;BME280;6154;51.550;12.138;2023-02-20T05:06:03;100987.84;;;12.27;56.85
12182;BME280;6154;51.550;12.138;2023-02-20T05:08:31;100990.59;;;12.42;56.68
12182;BME280;6154;51.550;12.138;2023-02-20T05:10:59;100982.72;;;12.40;56.87
12182;BME280;6154;51.550;12.138;2023-02-20T05:13:27;100971.75;;;12.30;56.62
12182;BME280;6154;51.550;12.138;2023-02-20T05:15:57;100966.81;;;12.40;56.92
12182;BME280;6154;51.550;12.138;2023-02-20T05:18:26;100959.28;;;12.48;56.85
12182;BME280;6154;51.550;12.138;2023-02-20T05:20:55;100955.75;;;12.32;56.70
12182;BME280;6154;51.550;12.138;2023-02-20T05:23:41;100941.84;;;12.44;56.92
12182;BME280;6154;51.550;12.138;2023-02-20T05:26:09;100932.41;;;12.54;56.66
12182;BME280;6154;51.550;12.138;2023-02-20T05:28:38;100945.69;;;12.21;56.93
12182;BME280;6154;51.550;12.138;2023-02-20T05:31:08;100944.09;;;12.01;57.33
12182;BME280;6154;51.550;12.138;2023-02-20T05:33:36;100944.50;;;12.44;56.92
12182;BME280;6154;51.550;12.138;2023-02-20T05:36:05;100948.00;;;12.45;56.85
12182;BME280;6154;51.550;12.138;2023-02-20T05:38:33;100943.19;;;12.51;56.95
12182;BME280;6154;51.550;12.138;2023-02-20T05:41:01;100941.78;;;12.28;57.33
12182;BME280;6154;51.550;12.138;2023-02-20T05:43:29;100932.06;;;12.60;56.86
12182;BME280;6154;51.550;12.138;2023-02-20T05:45:58;100930.88;;;12.66;56.79
12182;BME280;6154;51.550;12.138;2023-02-20T05:48:27;100927.12;;;12.54;57.01
12182;BME280;6154;51.550;12.138;2023-02-20T05:50:55;100935.22;;;12.51;56.97
12182;BME280;6154;51.550;12.138;2023-02-20T05:53:26;100924.00;;;12.62;57.03
12182;BME280;6154;51.550;12.138;2023-02-20T05:55:55;100914.78;;;12.53;57.32
12182;BME280;6154;51.550;12.138;2023-02-20T05:58:23;100903.97;;;12.25;58.00
12182;BME280;6154;51.550;12.138;2023-02-20T06:00:51;100908.34;;;12.57;57.17
12182;BME280;6154;51.550;12.138;2023-02-20T06:03:20;100912.00;;;12.23;57.58
12182;BME280;6154;51.550;12.138;2023-02-20T06:05:49;100898.75;;;12.55;57.18
12182;BME280;6154;51.550;12.138;2023-02-20T06:08:17;100904.84;;;12.57;57.01
12182;BME280;6154;51.550;12.138;2023-02-20T06:10:46;100901.84;;;12.47;57.46
12182;BME280;6154;51.550;12.138;2023-02-20T06:13:14;100887.53;;;12.34;57.57
12182;BME280;6154;51.550;12.138;2023-02-20T06:15:42;100894.53;;;12.51;57.14
12182;BME280;6154;51.550;12.138;2023-02-20T06:18:11;100888.47;;;12.49;56.89
12182;BME280;6154;51.550;12.138;2023-02-20T06:20:39;100875.03;;;12.52;56.88
12182;BME280;6154;51.550;12.138;2023-02-20T06:23:09;100862.34;;;12.57;56.74
12182;BME280;6154;51.550;12.138;2023-02-20T06:25:37;100843.94;;;12.38;56.14
12182;BME280;6154;51.550;12.138;2023-02-20T06:28:05;100841.97;;;12.57;56.20
12182;BME280;6154;51.550;12.138;2023-02-20T06:30:33;100841.53;;;12.65;56.03
12182;BME280;6154;51.550;12.138;2023-02-20T06:33:02;100856.72;;;12.47;55.92
12182;BME280;6154;51.550;12.138;2023-02-20T06:35:30;100884.75;;;12.20;56.06
12182;BME280;6154;51.550;12.138;2023-02-20T06:37:59;100876.75;;;12.53;55.87
12182;BME280;6154;51.550;12.138;2023-02-20T06:40:29;100892.31;;;12.59;55.79
12182;BME280;6154;51.550;12.138;2023-02-20T06:42:58;100882.75;;;12.56;55.81
12182;BME280;6154;51.550;12.138;2023-02-20T06:45:26;100872.88;;;12.58;55.76
12182;BME280;6154;51.550;12.138;2023-02-20T06:48:10;100867.06;;;12.52;55.68
12182;BME280;6154;51.550;12.138;2023-02-20T06:50:40;100863.41;;;12.54;55.61
12182;BME280;6154;51.550;12.138;2023-02-20T06:53:08;100861.69;;;12.53;55.91
12182;BME280;6154;51.550;12.138;2023-02-20T06:55:38;100852.16;;;12.18;55.77
12182;BME280;6154;51.550;12.138;2023-02-20T06:58:06;100853.44;;;12.42;56.01
12182;BME280;6154;51.550;12.138;2023-02-20T07:00:37;100843.41;;;12.31;56.40
12182;BME280;6154;51.550;12.138;2023-02-20T07:03:05;100833.25;;;12.40;56.08
12182;BME280;6154;51.550;12.138;2023-02-20T07:05:33;100842.25;;;12.37;56.23
12182;BME280;6154;51.550;12.138;2023-02-20T07:08:01;100855.84;;;12.31;56.43
12182;BME280;6154;51.550;12.138;2023-02-20T07:10:30;100864.06;;;12.42;56.22
12182;BME280;6154;51.550;12.138;2023-02-20T07:12:59;100842.25;;;12.37;56.29
12182;BME280;6154;51.550;12.138;2023-02-20T07:15:29;100839.22;;;12.12;56.76
12182;BME280;6154;51.550;12.138;2023-02-20T07:17:57;100833.75;;;12.30;56.44
12182;BME280;6154;51.550;12.138;2023-02-20T07:20:25;100845.22;;;12.31;56.50
12182;BME280;6154;51.550;12.138;2023-02-20T07:22:54;100839.59;;;12.37;56.67
12182;BME280;6154;51.550;12.138;2023-02-20T07:25:22;100830.00;;;12.34;56.72
12182;BME280;6154;51.550;12.138;2023-02-20T07:27:50;100821.53;;;12.28;56.51
12182;BME280;6154;51.550;12.138;2023-02-20T07:30:21;100815.00;;;12.65;56.40
12182;BME280;6154;51.550;12.138;2023-02-20T07:32:51;100829.50;;;12.44;56.83
12182;BME280;6154;51.550;12.138;2023-02-20T07:35:19;100837.25;;;12.78;56.39
12182;BME280;6154;51.550;12.138;2023-02-20T07:37:47;100820.56;;;12.60;56.81
12182;BME280;6154;51.550;12.138;2023-02-20T07:40:15;100803.97;;;12.87;56.40
12182;BME280;6154;51.550;12.138;2023-02-20T07:42:44;100795.47;;;12.96;56.31
12182;BME280;6154;51.550;12.138;2023-02-20T07:45:13;100800.28;;;12.89;56.46
12182;BME280;6154;51.550;12.138;2023-02-20T07:47:42;100786.16;;;12.89;56.47
12182;BME280;6154;51.550;12.138;2023-02-20T07:50:11;100778.38;;;13.00;56.30
12182;BME280;6154;51.550;12.138;2023-02-20T07:52:39;100778.47;;;12.69;57.01
12182;BME280;6154;51.550;12.138;2023-02-20T07:55:07;100785.38;;;12.87;56.56
12182;BME280;6154;51.550;12.138;2023-02-20T07:57:36;100767.94;;;12.83;56.63
12182;BME280;6154;51.550;12.138;2023-02-20T08:00:06;100776.13;;;12.94;56.90
12182;BME280;6154;51.550;12.138;2023-02-20T08:02:37;100783.75;;;13.14;56.32
12182;BME280;6154;51.550;12.138;2023-02-20T08:05:07;100781.19;;;13.13;56.29
12182;BME280;6154;51.550;12.138;2023-02-20T08:07:36;100792.47;;;13.16;56.60
12182;BME280;6154;51.550;12.138;2023-02-20T08:10:05;100785.81;;;13.09;56.37
12182;BME280;6154;51.550;12.138;2023-02-20T08:12:33;100784.78;;;13.12;56.79
12182;BME280;6154;51.550;12.138;2023-02-20T08:15:01;100781.25;;;13.27;56.26
12182;BME280;6154;51.550;12.138;2023-02-20T08:17:30;100779.22;;;12.86;56.66
12182;BME280;6154;51.550;12.138;2023-02-20T08:20:16;100771.12;;;13.18;56.41
12182;BME280;6154;51.550;12.138;2023-02-20T08:22:45;100777.91;;;13.23;56.59
12182;BME280;6154;51.550;12.138;2023-02-20T08:25:15;100771.03;;;13.05;56.85
12182;BME280;6154;51.550;12.138;2023-02-20T08:27:44;100768.44;;;13.34;56.43
12182;BME280;6154;51.550;12.138;2023-02-20T08:30:16;100762.94;;;13.37;56.57
12182;BME280;6154;51.550;12.138;2023-02-20T08:32:45;100773.06;;;13.30;56.39
12182;BME280;6154;51.550;12.138;2023-02-20T08:35:14;100778.47;;;13.29;56.93
12182;BME280;6154;51.550;12.138;2023-02-20T08:37:43;100782.87;;;13.44;56.37
12182;BME280;6154;51.550;12.138;2023-02-20T08:40:12;100787.62;;;13.67;55.98
12182;BME280;6154;51.550;12.138;2023-02-20T08:42:40;100787.44;;;13.70;55.94
12182;BME280;6154;51.550;12.138;2023-02-20T08:45:09;100795.88;;;13.63;55.70
12182;BME280;6154;51.550;12.138;2023-02-20T08:47:38;100799.47;;;13.90;55.29
12182;BME280;6154;51.550;12.138;2023-02-20T08:50:06;100793.13;;;13.78;54.65
12182;BME280;6154;51.550;12.138;2023-02-20T08:52:36;100794.44;;;14.14;55.27
12182;BME280;6154;51.550;12.138;2023-02-20T08:55:04;100779.25;;;13.88;55.39
12182;BME280;6154;51.550;12.138;2023-02-20T08:57:32;100793.31;;;13.90;54.85
12182;BME280;6154;51.550;12.138;2023-02-20T09:00:01;100797.00;;;14.16;55.02
12182;BME280;6154;51.550;12.138;2023-02-20T09:02:31;100789.34;;;13.54;55.29
12182;BME280;6154;51.550;12.138;2023-02-20T09:04:59;100785.72;;;13.84;54.78
12182;BME280;6154;51.550;12.138;2023-02-20T09:07:27;100782.66;;;14.04;54.96
12182;BME280;6154;51.550;12.138;2023-02-20T09:09:57;100778.47;;;14.41;54.64
12182;BME280;6154;51.550;12.138;2023-02-20T09:12:25;100779.25;;;14.29;54.79
12182;BME280;6154;51.550;12.138;2023-02-20T09:14:53;100782.94;;;13.99;53.99
12182;BME280;6154;51.550;12.138;2023-02-20T09:17:22;100782.94;;;14.41;54.99
12182;BME280;6154;51.550;12.138;2023-02-20T09:19:50;100786.59;;;14.25;54.72
12182;BME280;6154;51.550;12.138;2023-02-20T09:22:21;100787.09;;;14.59;54.58
12182;BME280;6154;51.550;12.138;2023-02-20T09:24:49;100796.91;;;14.58;53.82
12182;BME280;6154;51.550;12.138;2023-02-20T09:27:19;100797.50;;;14.49;53.83
12182;BME280;6154;51.550;12.138;2023-02-20T09:29:47;100802.31;;;14.57;53.62
12182;BME280;6154;51.550;12.138;2023-02-20T09:32:16;100792.19;;;14.89;54.12
12182;BME280;6154;51.550;12.138;2023-02-20T09:34:44;100782.66;;;14.72;54.17
12182;BME280;6154;51.550;12.138;2023-02-20T09:37:13;100766.41;;;14.89;53.88
12182;BME280;6154;51.550;12.138;2023-02-20T09:39:41;100769.06;;;14.89;53.62
12182;BME280;6154;51.550;12.138;2023-02-20T09:42:22;100766.72;;;14.85;53.76
12182;BME280;6154;51.550;12.138;2023-02-20T09:44:58;100754.38;;;14.97;53.20
12182;BME280;6154;51.550;12.138;2023-02-20T09:47:40;100760.47;;;15.24;53.94
12182;BME280;6154;51.550;12.138;2023-02-20T09:50:13;100755.97;;;15.12;52.99
12182;BME280;6154;51.550;12.138;2023-02-20T09:52:45;100736.22;;;15.02;53.32
12182;BME280;6154;51.550;12.138;2023-02-20T09:55:19;100728.47;;;15.11;53.17
12182;BME280;6154;51.550;12.138;2023-02-20T09:57:52;100717.06;;;15.47;53.60
12182;BME280;6154;51.550;12.138;2023-02-20T10:00:27;100718.97;;;15.45;53.28
12182;BME280;6154;51.550;12.138;2023-02-20T10:03:16;100707.25;;;15.35;52.27
12182;BME280;6154;51.550;12.138;2023-02-20T10:05:46;100688.00;;;15.68;52.65
12182;BME280;6154;51.550;12.138;2023-02-20T10:08:18;100691.37;;;15.83;53.22
12182;BME280;6154;51.550;12.138;2023-02-20T10:10:48;100666.88;;;15.52;52.61
12182;BME280;6154;51.550;12.138;2023-02-20T10:13:45;100672.19;;;15.78;53.88
12182;BME280;6154;51.550;12.138;2023-02-20T10:16:27;100668.00;;;15.37;51.58
12182;BME280;6154;51.550;12.138;2023-02-20T10:19:10;100658.44;;;15.59;51.58
12182;BME280;6154;51.550;12.138;2023-02-20T10:21:48;100631.78;;;15.95;51.14
12182;BME280;6154;51.550;12.138;2023-02-20T10:24:33;100648.47;;;15.86;51.07
12182;BME280;6154;51.550;12.138;2023-02-20T10:27:15;100639.75;;;16.19;50.74
12182;BME280;6154;51.550;12.138;2023-02-20T10:29:47;100649.03;;;16.02;51.71
12182;BME280;6154;51.550;12.138;2023-02-20T10:32:21;100631.41;;;16.24;52.01
12182;BME280;6154;51.550;12.138;2023-02-20T10:34:56;100635.09;;;16.34;51.08
12182;BME280;6154;51.550;12.138;2023-02-20T10:37:28;100641.09;;;16.14;51.50
12182;BME280;6154;51.550;12.138;2023-02-20T10:40:18;100626.31;;;16.32;52.00
12182;BME280;6154;51.550;12.138;2023-02-20T10:42:53;100616.72;;;16.64;51.31
12182;BME280;6154;51.550;12.138;2023-02-20T10:45:30;100627.09;;;16.34;50.91
12182;BME280;6154;51.550;12.138;2023-02-20T10:48:03;100618.62;;;16.98;50.99
12182;BME280;6154;51.550;12.138;2023-02-20T10:50:36;100617.88;;;17.18;51.32
12182;BME280;6154;51.550;12.138;2023-02-20T10:53:19;100609.75;;;16.97;50.10
12182;BME280;6154;51.550;12.138;2023-02-20T10:55:57;100605.09;;;16.77;49.80
12182;BME280;6154;51.550;12.138;2023-02-20T10:58:30;100596.25;;;16.99;49.02
12182;BME280;6154;51.550;12.138;2023-02-20T11:01:04;100599.87;;;16.75;49.55
12182;BME280;6154;51.550;12.138;2023-02-20T11:03:40;100589.78;;;16.90;50.20
12182;BME280;6154;51.550;12.138;2023-02-20T11:06:13;100589.66;;;16.91;49.95
12182;BME280;6154;51.550;12.138;2023-02-20T11:08:42;100583.72;;;17.10;49.90
12182;BME280;6154;51.550;12.138;2023-02-20T11:11:20;100575.84;;;16.98;50.70
12182;BME280;6154;51.550;12.138;2023-02-20T11:13:50;100586.03;;;16.92;48.99
12182;BME280;6154;51.550;12.138;2023-02-20T11:16:27;100576.66;;;17.09;49.17
12182;BME280;6154;51.550;12.138;2023-02-20T11:19:03;100586.28;;;16.78;48.40
12182;BME280;6154;51.550;12.138;2023-02-20T11:21:36;100583.25;;;16.94;48.04
12182;BME280;6154;51.550;12.138;2023-02-20T11:24:27;100575.94;;;17.07;49.67
12182;BME280;6154;51.550;12.138;2023-02-20T11:27:10;100574.12;;;17.08;47.89
12182;BME280;6154;51.550;12.138;2023-02-20T11:29:45;100574.94;;;16.63;47.42
12182;BME280;6154;51.550;12.138;2023-02-20T11:32:34;100554.56;;;16.96;48.32
12182;BME280;6154;51.550;12.138;2023-02-20T11:35:25;100554.91;;;17.68;48.52
12182;BME280;6154;51.550;12.138;2023-02-20T11:38:21;100561.12;;;17.69;48.07
12182;BME280;6154;51.550;12.138;2023-02-20T11:43:44;100536.00;;;17.49;47.39
12182;BME280;6154;51.550;12.138;2023-02-20T11:46:27;100532.37;;;17.39;49.21
12182;BME280;6154;51.550;12.138;2023-02-20T11:49:01;100517.44;;;17.68;49.17
12182;BME280;6154;51.550;12.138;2023-02-20T11:51:36;100527.41;;;17.34;46.90
12182;BME280;6154;51.550;12.138;2023-02-20T11:54:12;100522.69;;;17.27;47.49
12182;BME280;6154;51.550;12.138;2023-02-20T11:56:54;100516.03;;;17.53;48.30
12182;BME280;6154;51.550;12.138;2023-02-20T11:59:29;100522.44;;;17.18;48.20
12182;BME280;6154;51.550;12.138;2023-02-20T12:02:25;100497.97;;;17.34;48.61
12182;BME280;6154;51.550;12.138;2023-02-20T12:05:17;100509.00;;;17.41;47.36
12182;BME280;6154;51.550;12.138;2023-02-20T12:07:55;100498.84;;;17.35;46.88
12182;BME280;6154;51.550;12.138;2023-02-20T12:10:30;100497.13;;;17.22;48.10
12182;BME280;6154;51.550;12.138;2023-02-20T12:13:00;100508.41;;;16.94;48.30
12182;BME280;6154;51.550;12.138;2023-02-20T12:15:29;100503.44;;;17.33;49.75
12182;BME280;6154;51.550;12.138;2023-02-20T12:18:13;100502.00;;;17.29;48.96
12182;BME280;6154;51.550;12.138;2023-02-20T12:20:49;100502.28;;;17.14;47.51
12182;BME280;6154;51.550;12.138;2023-02-20T12:23:26;100492.38;;;17.37;48.90
12182;BME280;6154;51.550;12.138;2023-02-20T12:26:09;100508.34;;;17.16;49.20
12182;BME280;6154;51.550;12.138;2023-02-20T12:28:46;100516.69;;;17.45;48.67
12182;BME280;6154;51.550;12.138;2023-02-20T12:31:30;100513.94;;;17.13;48.42
12182;BME280;6154;51.550;12.138;2023-02-20T12:34:09;100512.13;;;17.14;48.52
12182;BME280;6154;51.550;12.138;2023-02-20T12:36:46;100512.16;;;17.46;49.39
12182;BME280;6154;51.550;12.138;2023-02-20T12:39:26;100490.97;;;17.54;49.15
12182;BME280;6154;51.550;12.138;2023-02-20T12:42:05;100499.62;;;17.46;49.14
12182;BME280;6154;51.550;12.138;2023-02-20T12:45:17;100503.88;;;17.49;49.08
12182;BME280;6154;51.550;12.138;2023-02-20T12:48:01;100502.09;;;17.38;47.60
12182;BME280;6154;51.550;12.138;2023-02-20T12:50:45;100498.69;;;17.68;49.18
12182;BME280;6154;51.550;12.138;2023-02-20T12:53:27;100500.03;;;17.63;48.75
12182;BME280;6154;51.550;12.138;2023-02-20T12:56:05;100513.75;;;17.80;48.48
12182;BME280;6154;51.550;12.138;2023-02-20T12:58:46;100506.34;;;17.84;49.49
12182;BME280;6154;51.550;12.138;2023-02-20T13:01:19;100499.13;;;17.52;48.22
12182;BME280;6154;51.550;12.138;2023-02-20T13:04:10;100502.00;;;17.72;48.89
12182;BME280;6154;51.550;12.138;2023-02-20T13:06:49;100502.34;;;17.78;48.90
12182;BME280;6154;51.550;12.138;2023-02-20T13:09:24;100489.50;;;18.14;49.63
12182;BME280;6154;51.550;12.138;2023-02-20T13:11:55;100493.88;;;18.15;48.78
12182;BME280;6154;51.550;12.138;2023-02-20T13:14:33;100490.72;;;18.31;49.68
12182;BME280;6154;51.550;12.138;2023-02-20T13:17:17;100485.69;;;18.37;48.34
12182;BME280;6154;51.550;12.138;2023-02-20T13:19:53;100480.59;;;18.34;48.46
12182;BME280;6154;51.550;12.138;2023-02-20T13:22:23;100470.50;;;18.48;48.64
12182;BME280;6154;51.550;12.138;2023-02-20T13:24:53;100467.19;;;18.34;50.02